EGAC/BHD METAR and TAF weather

Enter ICAO airport designator
Station Type Date Time Source
EGAC METAR 2022/08/16 18:50 UTC NOAA

EGAC 161850Z AUTO 34009KT 310V020 9999 NCD 15/08 Q1014


Station Type Date Time Source
EGAC Decoded METAR 2022/08/16 18:50 UTC NOAA

Belfast / Harbour, United Kingdom (EGAC) 54-36N 005-53W 0M
Aug 16, 2022 - 02:50 PM EDT / 2022.08.16 1850 UTC
Wind: from the NNW (340 degrees) at 10 MPH (9 KT) (direction variable):0
Visibility: greater than 7 mile(s):0
Temperature: 59 F (15 C)
Dew Point: 46 F (8 C)
Relative Humidity: 62%
Pressure (altimeter): 29.94 in. Hg (1014 hPa)
ob: EGAC 161850Z AUTO 34009KT 310V020 9999 NCD 15/08 Q1014
cycle: 19

Station Type Date Time Source
EGAC TAF 2021/12/01 18:06 UTC NOAA

TAF TAF EGAC 010102Z 3018/0103 CNL

Example: see airport list